createdAt,value
2019-04-29T00:12:10.299Z,15.07
2019-04-29T00:27:17.916Z,14.80
2019-04-29T00:42:35.015Z,14.00
2019-04-29T00:57:42.610Z,14.10
2019-04-29T01:12:50.146Z,13.07
2019-04-29T01:28:07.670Z,15.23
2019-04-29T01:43:15.159Z,13.97
2019-04-29T01:58:22.971Z,14.43
2019-04-29T02:13:30.455Z,13.97
2019-04-29T02:28:37.950Z,14.37
2019-04-29T02:43:47.007Z,14.90
2019-04-29T02:59:00.725Z,14.87
2019-04-29T03:14:08.235Z,14.17
2019-04-29T03:29:25.415Z,12.50
2019-04-29T03:44:32.932Z,12.87
2019-04-29T03:59:40.712Z,14.53
2019-04-29T04:14:48.203Z,16.60
2019-04-29T04:29:55.691Z,17.13
2019-04-29T04:45:03.301Z,15.83
2019-04-29T05:00:20.003Z,15.24
2019-04-29T05:15:26.052Z,15.23
2019-04-29T05:30:33.563Z,16.07
2019-04-29T05:45:51.433Z,16.60
2019-04-29T06:01:03.040Z,15.37
2019-04-29T06:16:10.562Z,15.67
2019-04-29T06:31:18.368Z,15.28
2019-04-29T06:46:25.845Z,15.60
2019-04-29T07:01:37.570Z,15.43
2019-04-29T07:16:42.532Z,16.50
2019-04-29T07:31:50.002Z,17.53
2019-04-29T07:47:01.960Z,18.40
2019-04-29T08:02:06.667Z,17.57
2019-04-29T08:17:14.158Z,18.10
2019-04-29T08:32:21.633Z,18.77
2019-04-29T08:47:32.446Z,19.20
2019-04-29T09:02:41.496Z,19.43
2019-04-29T09:17:49.068Z,20.13
2019-04-29T09:32:56.616Z,19.13
2019-04-29T09:48:04.135Z,18.80
2019-04-29T10:03:29.330Z,18.67
2019-04-29T10:18:45.152Z,17.27
2019-04-29T10:33:55.045Z,18.00
2019-04-29T10:49:10.134Z,17.50
2019-04-29T11:04:17.876Z,16.17
2019-04-29T11:19:25.598Z,12.33
2019-04-29T11:34:53.429Z,11.10
2019-04-29T11:50:07.538Z,12.40
2019-04-29T12:05:40.265Z,9.37
2019-04-29T12:20:58.220Z,6.67
2019-04-29T12:36:11.414Z,5.93
2019-04-29T12:51:19.472Z,6.03
2019-04-29T13:06:39.487Z,5.80
2019-04-29T13:21:43.142Z,5.00
2019-04-29T13:37:06.058Z,4.53
2019-04-29T13:52:00.447Z,4.20
2019-04-29T14:07:07.924Z,4.17
2019-04-29T14:22:22.334Z,3.77
2019-04-29T14:37:25.465Z,3.40
2019-04-29T14:52:33.183Z,3.27
2019-04-29T15:07:40.697Z,3.40
2019-04-29T15:22:49.548Z,2.83
2019-04-29T15:37:57.053Z,2.50
2019-04-29T15:53:04.680Z,3.27
2019-04-29T16:08:38.447Z,2.90
2019-04-29T16:23:46.879Z,3.07
2019-04-29T16:38:54.382Z,2.90
2019-04-29T16:54:02.280Z,2.80
2019-04-29T17:09:27.819Z,3.40
2019-04-29T17:24:35.334Z,2.53
2019-04-29T17:39:42.809Z,3.03
2019-04-29T17:54:52.683Z,3.50
2019-04-29T18:10:24.358Z,3.57
2019-04-29T18:25:48.193Z,3.20
2019-04-29T18:40:55.994Z,3.10
2019-04-29T18:56:05.107Z,3.10
2019-04-29T19:11:12.453Z,3.53
2019-04-29T19:26:22.327Z,3.10
2019-04-29T19:41:29.104Z,3.20
2019-04-29T19:56:36.586Z,3.27
2019-04-29T20:11:45.857Z,3.60
2019-04-29T20:26:54.056Z,3.33
2019-04-29T20:42:06.459Z,3.40
2019-04-29T20:57:17.564Z,3.67
2019-04-29T21:12:48.166Z,3.43
2019-04-29T21:27:58.239Z,4.03
2019-04-29T21:43:13.647Z,4.27
2019-04-29T21:58:17.960Z,3.53
2019-04-29T22:13:25.208Z,3.60
2019-04-29T22:28:34.942Z,3.37
2019-04-29T22:43:50.837Z,3.37
2019-04-29T22:58:58.107Z,3.77
2019-04-29T23:14:09.830Z,4.60
2019-04-29T23:29:15.590Z,3.87
2019-04-29T23:44:26.083Z,4.07
2019-04-29T23:59:35.393Z,4.43
